createdAt,value
2022-08-27T00:00:24.511Z,33.58
2022-08-27T00:01:26.878Z,33.64
2022-08-27T00:02:30.772Z,33.61
2022-08-27T00:03:33.239Z,33.65
2022-08-27T00:04:38.125Z,33.58
2022-08-27T00:05:41.344Z,33.48
2022-08-27T00:06:43.802Z,33.56
2022-08-27T00:07:48.150Z,33.52
2022-08-27T00:08:50.628Z,33.41
2022-08-27T00:09:53.459Z,33.41
2022-08-27T00:10:56.033Z,33.37
2022-08-27T00:11:58.587Z,33.32
2022-08-27T00:13:01.155Z,33.42
2022-08-27T00:14:03.623Z,33.41
2022-08-27T00:15:06.786Z,33.41
2022-08-27T00:16:12.071Z,33.20
2022-08-27T00:17:15.224Z,33.44
2022-08-27T00:18:22.034Z,33.40
2022-08-27T00:19:22.282Z,33.19
2022-08-27T00:20:26.699Z,33.61
2022-08-27T00:21:29.146Z,33.61
2022-08-27T00:22:31.630Z,33.35
2022-08-27T00:23:35.421Z,33.28
2022-08-27T00:24:38.468Z,33.18
2022-08-27T00:25:42.135Z,33.51
2022-08-27T00:26:44.661Z,33.48
2022-08-27T00:27:48.467Z,33.29
2022-08-27T00:28:51.126Z,33.36
2022-08-27T00:29:53.489Z,33.34
2022-08-27T00:30:56.258Z,33.44
2022-08-27T00:31:59.214Z,33.29
2022-08-27T00:33:02.105Z,33.20
2022-08-27T00:34:04.478Z,33.19
2022-08-27T00:35:09.363Z,33.22
2022-08-27T00:36:13.705Z,33.12
2022-08-27T00:37:16.078Z,33.32
2022-08-27T00:38:19.766Z,33.30
2022-08-27T00:39:22.217Z,33.39
2022-08-27T00:40:26.356Z,33.26
2022-08-27T00:41:28.994Z,33.37
2022-08-27T00:42:34.544Z,33.49
2022-08-27T00:43:49.898Z,33.52
2022-08-27T00:44:52.363Z,33.26
2022-08-27T00:45:57.452Z,33.15
2022-08-27T00:47:03.848Z,33.45
2022-08-27T00:48:06.831Z,33.39
2022-08-27T00:49:18.858Z,33.25
2022-08-27T00:51:56.290Z,33.36
2022-08-27T00:53:01.909Z,33.42
2022-08-27T00:54:05.424Z,33.26
2022-08-27T00:55:14.191Z,33.41
2022-08-27T00:56:20.705Z,33.32
2022-08-27T00:57:23.177Z,33.47
2022-08-27T00:59:41.702Z,33.37
2022-08-27T01:00:45.063Z,33.19
2022-08-27T01:01:47.706Z,33.32
2022-08-27T01:02:51.148Z,33.31
2022-08-27T01:03:56.650Z,33.42
2022-08-27T01:05:02.220Z,33.37
2022-08-27T01:06:05.889Z,33.26
2022-08-27T01:07:09.503Z,33.27
2022-08-27T01:08:14.731Z,33.26
2022-08-27T01:09:17.205Z,33.31
2022-08-27T01:10:22.229Z,33.20
2022-08-27T01:11:24.789Z,33.37
2022-08-27T01:12:27.674Z,33.23
2022-08-27T01:13:58.769Z,33.23
2022-08-27T01:14:37.814Z,33.19
2022-08-27T01:15:40.178Z,33.16
2022-08-27T01:16:46.200Z,33.17
2022-08-27T01:17:48.799Z,33.20
2022-08-27T01:18:51.283Z,33.23
2022-08-27T01:19:56.699Z,33.35
2022-08-27T01:21:10.738Z,33.29
2022-08-27T01:22:19.946Z,33.13
2022-08-27T01:23:33.889Z,33.14
2022-08-27T01:24:44.908Z,33.23
2022-08-27T01:25:49.073Z,33.18
2022-08-27T01:26:51.619Z,33.23
2022-08-27T01:27:56.001Z,33.34
2022-08-27T01:28:58.294Z,33.37
2022-08-27T01:30:01.267Z,33.29
2022-08-27T01:31:05.001Z,33.27
2022-08-27T01:33:23.293Z,33.12
2022-08-27T01:34:25.671Z,33.12
2022-08-27T01:35:28.339Z,33.12
2022-08-27T01:36:31.518Z,33.12
2022-08-27T01:37:33.976Z,33.21
2022-08-27T01:38:36.509Z,33.07
2022-08-27T01:39:39.213Z,33.12
2022-08-27T01:40:43.419Z,33.14
2022-08-27T01:41:47.725Z,33.10
2022-08-27T01:42:53.067Z,33.16
2022-08-27T01:43:55.431Z,33.16
2022-08-27T01:45:11.620Z,33.22
2022-08-27T01:46:24.175Z,33.08
2022-08-27T01:47:30.992Z,33.21
2022-08-27T01:48:32.616Z,33.00
2022-08-27T01:49:34.981Z,32.99
2022-08-27T01:50:38.983Z,32.98
2022-08-27T01:53:08.610Z,33.07
2022-08-27T01:54:11.360Z,33.07
2022-08-27T01:55:15.581Z,33.16
2022-08-27T01:56:18.645Z,33.00
2022-08-27T01:57:25.274Z,33.08
2022-08-27T01:58:27.977Z,33.26
2022-08-27T01:59:39.502Z,33.31
2022-08-27T02:00:39.910Z,33.21
2022-08-27T02:01:42.672Z,33.11
2022-08-27T02:02:45.924Z,33.28
2022-08-27T02:03:48.110Z,33.38
2022-08-27T02:04:50.546Z,33.25
2022-08-27T02:05:53.832Z,33.26
2022-08-27T02:06:57.329Z,33.39
2022-08-27T02:07:59.764Z,33.31
2022-08-27T02:09:02.457Z,33.19
2022-08-27T02:10:07.175Z,33.27
2022-08-27T02:11:12.192Z,33.45
2022-08-27T02:12:15.269Z,33.35
2022-08-27T02:13:17.634Z,33.26
2022-08-27T02:14:19.993Z,33.30
2022-08-27T02:15:22.867Z,33.32
2022-08-27T02:16:27.518Z,33.16
2022-08-27T02:17:29.844Z,33.45
2022-08-27T02:18:32.155Z,33.38
2022-08-27T02:19:35.085Z,33.31
2022-08-27T02:20:37.751Z,33.32
2022-08-27T02:21:40.218Z,33.41
2022-08-27T02:22:55.639Z,33.36
2022-08-27T02:23:58.044Z,33.48
2022-08-27T02:25:00.509Z,33.45
2022-08-27T02:26:02.976Z,33.08
2022-08-27T02:27:05.346Z,33.23
2022-08-27T02:28:08.316Z,33.23
2022-08-27T02:29:10.785Z,33.23
2022-08-27T02:30:16.462Z,33.32
2022-08-27T02:31:20.181Z,33.16
2022-08-27T02:32:31.867Z,33.31
2022-08-27T02:33:27.095Z,33.07
2022-08-27T02:34:30.010Z,33.27
2022-08-27T02:35:34.781Z,33.16
2022-08-27T02:36:37.548Z,33.03
2022-08-27T02:37:40.839Z,33.14
2022-08-27T02:38:43.197Z,33.09
2022-08-27T02:39:46.379Z,32.98
2022-08-27T02:40:49.047Z,32.96
2022-08-27T02:41:53.258Z,33.00
2022-08-27T02:42:56.653Z,33.15
2022-08-27T02:43:59.004Z,33.09
2022-08-27T02:45:04.700Z,33.19
2022-08-27T02:46:08.916Z,33.18
2022-08-27T02:47:11.310Z,33.16
2022-08-27T02:48:13.681Z,33.33
2022-08-27T02:49:16.650Z,33.24
2022-08-27T02:50:20.150Z,33.16
2022-08-27T02:51:23.532Z,33.07
2022-08-27T02:52:27.535Z,33.10
2022-08-27T02:53:30.017Z,33.18
2022-08-27T02:54:32.251Z,33.25
2022-08-27T02:55:35.443Z,33.28
2022-08-27T02:56:40.465Z,33.32
2022-08-27T02:57:42.900Z,33.31
2022-08-27T02:58:46.722Z,33.26
2022-08-27T02:59:52.140Z,33.43
2022-08-27T03:00:55.024Z,33.37
2022-08-27T03:01:57.596Z,33.28
2022-08-27T03:03:00.523Z,33.27
2022-08-27T03:04:03.743Z,33.31
2022-08-27T03:05:07.852Z,33.25
2022-08-27T03:06:11.337Z,33.31
2022-08-27T03:07:18.667Z,33.37
2022-08-27T03:08:17.907Z,33.35
2022-08-27T03:09:20.885Z,33.55
2022-08-27T03:10:24.368Z,33.55
2022-08-27T03:11:26.939Z,33.31
2022-08-27T03:12:29.299Z,33.24
2022-08-27T03:13:31.767Z,33.26
2022-08-27T03:14:34.160Z,33.30
2022-08-27T03:15:36.551Z,33.29
2022-08-27T03:16:39.171Z,33.24
2022-08-27T03:17:41.728Z,33.27
2022-08-27T03:18:44.101Z,33.18
2022-08-27T03:19:46.868Z,33.28
2022-08-27T03:20:53.623Z,33.17
2022-08-27T03:21:55.986Z,33.18
2022-08-27T03:22:59.370Z,33.28
2022-08-27T03:24:11.643Z,33.40
2022-08-27T03:25:08.399Z,33.33
2022-08-27T03:26:12.042Z,33.40
2022-08-27T03:27:14.424Z,33.40
2022-08-27T03:28:20.625Z,33.53
2022-08-27T03:29:22.973Z,33.50
2022-08-27T03:30:26.053Z,33.39
2022-08-27T03:31:28.519Z,33.49
2022-08-27T03:32:30.821Z,33.29
2022-08-27T03:33:35.389Z,33.40
2022-08-27T03:34:38.980Z,33.56
2022-08-27T03:35:41.546Z,33.54
2022-08-27T03:36:44.011Z,33.58
2022-08-27T03:37:48.515Z,33.56
2022-08-27T03:38:51.491Z,33.50
2022-08-27T03:39:54.222Z,33.44
2022-08-27T03:40:57.151Z,33.50
2022-08-27T03:42:00.020Z,33.42
2022-08-27T03:43:02.490Z,33.53
2022-08-27T03:44:05.965Z,33.68
2022-08-27T03:45:09.146Z,33.71
2022-08-27T03:46:12.180Z,33.60
2022-08-27T03:47:15.095Z,33.60
2022-08-27T03:48:17.667Z,33.51
2022-08-27T03:49:21.334Z,33.75
2022-08-27T03:50:24.234Z,33.75
2022-08-27T03:51:28.488Z,33.67
2022-08-27T03:52:32.133Z,33.81
2022-08-27T03:53:35.857Z,33.77
2022-08-27T03:54:38.291Z,33.72
2022-08-27T03:55:40.863Z,33.73
2022-08-27T03:56:43.330Z,33.67
2022-08-27T03:57:45.683Z,33.68
2022-08-27T03:58:48.150Z,33.70
2022-08-27T03:59:54.357Z,33.84
2022-08-27T04:00:55.125Z,33.89
2022-08-27T04:01:57.698Z,33.93
2022-08-27T04:03:01.127Z,33.98
2022-08-27T04:04:03.746Z,33.93
2022-08-27T04:05:06.838Z,33.93
2022-08-27T04:06:11.746Z,33.95
2022-08-27T04:07:14.314Z,34.03
2022-08-27T04:08:17.087Z,34.04
2022-08-27T04:09:20.677Z,34.11
2022-08-27T04:10:24.071Z,34.03
2022-08-27T04:11:27.859Z,33.90
2022-08-27T04:12:31.500Z,33.96
2022-08-27T04:13:34.014Z,33.92
2022-08-27T04:14:37.196Z,34.00
2022-08-27T04:15:47.081Z,34.10
2022-08-27T04:16:50.931Z,34.07
2022-08-27T04:17:55.656Z,34.08
2022-08-27T04:18:58.117Z,34.06
2022-08-27T04:20:05.361Z,34.02
2022-08-27T04:21:09.193Z,34.04
2022-08-27T04:22:12.163Z,34.07
2022-08-27T04:23:15.858Z,34.22
2022-08-27T04:24:18.935Z,34.21
2022-08-27T04:25:21.299Z,34.10
2022-08-27T04:26:25.268Z,34.19
2022-08-27T04:27:27.977Z,34.13
2022-08-27T04:28:34.134Z,34.12
2022-08-27T04:29:35.356Z,34.14
2022-08-27T04:31:52.565Z,34.43
2022-08-27T04:32:55.121Z,34.79
2022-08-27T04:33:57.601Z,35.07
2022-08-27T04:35:00.079Z,35.51
2022-08-27T04:36:06.010Z,35.22
2022-08-27T04:37:08.785Z,35.71
2022-08-27T04:38:14.216Z,36.04
2022-08-27T04:39:17.428Z,36.29
2022-08-27T04:40:20.149Z,36.40
2022-08-27T04:41:22.740Z,36.91
2022-08-27T04:42:25.403Z,36.99
2022-08-27T04:43:28.075Z,37.12
2022-08-27T04:44:31.464Z,37.41
2022-08-27T04:45:33.723Z,37.54
2022-08-27T04:46:38.832Z,37.81
2022-08-27T04:47:41.210Z,38.01
2022-08-27T04:48:44.433Z,37.76
2022-08-27T04:49:47.472Z,37.49
2022-08-27T04:50:50.852Z,37.66
2022-08-27T04:51:53.528Z,37.73
2022-08-27T04:52:55.884Z,37.78
2022-08-27T04:54:01.111Z,38.04
2022-08-27T04:55:04.398Z,38.20
2022-08-27T04:56:07.480Z,38.10
2022-08-27T04:57:11.689Z,38.76
2022-08-27T04:58:15.274Z,38.71
2022-08-27T04:59:17.838Z,38.72
2022-08-27T05:00:21.739Z,38.68
2022-08-27T05:01:26.920Z,38.93
2022-08-27T05:02:29.637Z,38.84
2022-08-27T05:03:32.133Z,38.64
2022-08-27T05:04:36.309Z,38.48
2022-08-27T05:05:42.699Z,38.30
2022-08-27T05:06:44.205Z,38.16
2022-08-27T05:07:47.693Z,38.21
2022-08-27T05:08:52.727Z,37.80
2022-08-27T05:09:55.488Z,37.72
2022-08-27T05:10:58.528Z,37.42
2022-08-27T05:12:01.237Z,37.19
2022-08-27T05:13:03.608Z,37.10
2022-08-27T05:14:07.501Z,37.15
2022-08-27T05:15:11.090Z,36.97
2022-08-27T05:16:16.554Z,36.91
2022-08-27T05:17:19.813Z,36.86
2022-08-27T05:18:22.237Z,36.79
2022-08-27T05:19:24.634Z,36.70
2022-08-27T05:20:28.022Z,36.53
2022-08-27T05:21:33.661Z,36.56
2022-08-27T05:22:36.840Z,36.46
2022-08-27T05:23:39.199Z,36.33
2022-08-27T05:24:45.019Z,36.51
2022-08-27T05:25:47.896Z,36.61
2022-08-27T05:26:51.112Z,36.35
2022-08-27T05:27:53.460Z,36.57
2022-08-27T05:28:58.294Z,36.50
2022-08-27T05:30:01.578Z,36.53
2022-08-27T05:31:06.345Z,36.28
2022-08-27T05:32:09.053Z,36.00
2022-08-27T05:33:13.877Z,35.72
2022-08-27T05:34:18.915Z,35.76
2022-08-27T05:35:21.989Z,35.84
2022-08-27T05:36:27.369Z,35.93
2022-08-27T05:37:29.686Z,35.95
2022-08-27T05:38:33.767Z,35.93
2022-08-27T05:39:36.136Z,35.86
2022-08-27T05:40:39.109Z,35.80
2022-08-27T05:41:41.373Z,35.86
2022-08-27T05:42:43.834Z,35.90
2022-08-27T05:43:50.482Z,35.80
2022-08-27T05:44:52.555Z,35.80
2022-08-27T05:45:56.060Z,35.84
2022-08-27T05:46:59.741Z,35.84
2022-08-27T05:48:03.022Z,35.78
2022-08-27T05:49:05.487Z,35.76
2022-08-27T05:50:08.564Z,35.86
2022-08-27T05:51:25.311Z,35.72
2022-08-27T05:52:22.604Z,35.77
2022-08-27T05:53:24.966Z,35.77
2022-08-27T05:54:27.228Z,35.75
2022-08-27T05:55:30.713Z,35.68
2022-08-27T05:56:35.752Z,35.64
2022-08-27T05:57:39.433Z,35.67
2022-08-27T05:58:43.342Z,35.57
2022-08-27T05:59:45.795Z,35.61
2022-08-27T06:00:48.789Z,35.62
2022-08-27T06:01:53.800Z,35.60
2022-08-27T06:02:56.326Z,35.57
2022-08-27T06:03:58.639Z,35.74
2022-08-27T06:05:01.418Z,35.72
2022-08-27T06:06:06.520Z,35.78
2022-08-27T06:07:09.088Z,35.73
2022-08-27T06:08:12.114Z,35.79
2022-08-27T06:09:17.807Z,35.74
2022-08-27T06:10:21.803Z,35.69
2022-08-27T06:11:24.064Z,35.53
2022-08-27T06:12:27.136Z,35.53
2022-08-27T06:13:31.865Z,35.45
2022-08-27T06:14:35.653Z,35.46
2022-08-27T06:15:38.107Z,35.45
2022-08-27T06:16:40.995Z,35.46
2022-08-27T06:17:43.972Z,35.41
2022-08-27T06:18:47.394Z,35.46
2022-08-27T06:19:49.923Z,35.40
2022-08-27T06:20:52.399Z,35.32
2022-08-27T06:22:00.761Z,35.31
2022-08-27T06:22:59.263Z,35.32
2022-08-27T06:24:02.238Z,35.36
2022-08-27T06:25:05.932Z,35.33
2022-08-27T06:26:11.774Z,35.25
2022-08-27T06:27:16.290Z,35.36
2022-08-27T06:28:22.449Z,35.37
2022-08-27T06:29:25.110Z,35.31
2022-08-27T06:30:27.891Z,35.37
2022-08-27T06:31:32.560Z,35.35
2022-08-27T06:32:35.037Z,35.44
2022-08-27T06:33:37.835Z,35.25
2022-08-27T06:34:40.198Z,35.22
2022-08-27T06:35:42.560Z,35.16
2022-08-27T06:36:45.834Z,35.21
2022-08-27T06:37:48.714Z,35.18
2022-08-27T06:38:51.281Z,36.07
2022-08-27T06:39:54.821Z,35.64
2022-08-27T06:40:57.706Z,36.20
2022-08-27T06:42:01.749Z,35.92
2022-08-27T06:43:07.848Z,36.36
2022-08-27T06:44:10.572Z,36.17
2022-08-27T06:45:13.179Z,36.45
2022-08-27T06:46:17.384Z,36.28
2022-08-27T06:47:20.329Z,36.23
2022-08-27T06:48:24.419Z,36.06
2022-08-27T06:49:27.073Z,36.04
2022-08-27T06:50:32.215Z,36.07
2022-08-27T06:51:35.395Z,35.71
2022-08-27T06:52:37.654Z,35.88
2022-08-27T06:53:40.945Z,36.02
2022-08-27T06:54:43.915Z,35.98
2022-08-27T06:55:48.326Z,35.98
2022-08-27T06:56:50.893Z,35.91
2022-08-27T06:57:53.284Z,35.93
2022-08-27T06:58:56.846Z,35.93
2022-08-27T06:59:59.964Z,35.97
2022-08-27T07:01:02.588Z,36.01
2022-08-27T07:02:05.060Z,36.11
2022-08-27T07:03:08.239Z,36.03
2022-08-27T07:04:13.531Z,36.10
2022-08-27T07:05:16.445Z,36.24
2022-08-27T07:06:19.216Z,36.09
2022-08-27T07:07:32.579Z,35.96
2022-08-27T07:08:26.001Z,36.07
2022-08-27T07:09:28.476Z,36.23
2022-08-27T07:10:31.833Z,36.15
2022-08-27T07:11:34.097Z,36.07
2022-08-27T07:12:37.585Z,36.03
2022-08-27T07:13:40.889Z,36.08
2022-08-27T07:14:43.538Z,36.04
2022-08-27T07:15:47.074Z,36.25
2022-08-27T07:16:52.976Z,36.33
2022-08-27T07:17:55.540Z,36.15
2022-08-27T07:19:04.017Z,36.11
2022-08-27T07:20:07.638Z,36.56
2022-08-27T07:21:11.443Z,37.22
2022-08-27T07:22:13.936Z,37.09
2022-08-27T07:23:16.367Z,37.35
2022-08-27T07:24:18.826Z,37.47
2022-08-27T07:25:21.290Z,37.66
2022-08-27T07:26:25.085Z,37.52
2022-08-27T07:27:27.455Z,37.45
2022-08-27T07:28:31.041Z,37.53
2022-08-27T07:29:33.815Z,37.41
2022-08-27T07:30:37.209Z,37.25
2022-08-27T07:31:41.097Z,37.21
2022-08-27T07:32:44.418Z,37.15
2022-08-27T07:33:52.508Z,37.06
2022-08-27T07:34:52.581Z,36.94
2022-08-27T07:35:54.845Z,36.93
2022-08-27T07:37:00.326Z,36.83
2022-08-27T07:38:02.742Z,36.76
2022-08-27T07:39:05.713Z,36.70
2022-08-27T07:41:23.447Z,36.79
2022-08-27T07:42:29.085Z,36.76
2022-08-27T07:43:31.901Z,36.73
2022-08-27T07:44:35.311Z,36.65
2022-08-27T07:45:46.434Z,36.79
2022-08-27T07:46:49.643Z,36.77
2022-08-27T07:47:52.670Z,36.86
2022-08-27T07:48:55.138Z,36.91
2022-08-27T07:49:57.933Z,36.78
2022-08-27T07:51:03.308Z,36.75
2022-08-27T07:52:05.821Z,36.68
2022-08-27T07:53:08.684Z,36.61
2022-08-27T07:54:11.141Z,36.58
2022-08-27T07:55:14.137Z,36.69
2022-08-27T07:56:18.326Z,36.87
2022-08-27T07:57:20.690Z,36.87
2022-08-27T07:58:23.675Z,36.83
2022-08-27T07:59:26.646Z,36.84
2022-08-27T08:00:30.124Z,36.72
2022-08-27T08:01:32.981Z,36.82
2022-08-27T08:02:36.596Z,36.74
2022-08-27T08:03:39.996Z,36.81
2022-08-27T08:04:42.531Z,36.82
2022-08-27T08:05:45.400Z,36.89
2022-08-27T08:06:48.296Z,36.81
2022-08-27T08:07:51.404Z,36.74
2022-08-27T08:08:53.920Z,36.60
2022-08-27T08:09:58.459Z,36.57
2022-08-27T08:11:01.341Z,36.73
2022-08-27T08:12:04.417Z,36.84
2022-08-27T08:13:06.984Z,36.64
2022-08-27T08:14:09.346Z,36.72
2022-08-27T08:15:12.425Z,36.72
2022-08-27T08:16:15.610Z,36.76
2022-08-27T08:17:18.933Z,36.90
2022-08-27T08:18:21.461Z,36.92
2022-08-27T08:19:23.703Z,36.84
2022-08-27T08:20:41.476Z,36.71
2022-08-27T08:21:31.599Z,36.85
2022-08-27T08:22:34.378Z,36.89
2022-08-27T08:23:38.168Z,36.83
2022-08-27T08:24:40.944Z,36.87
2022-08-27T08:25:57.223Z,36.90
2022-08-27T08:27:02.774Z,36.81
2022-08-27T08:28:05.033Z,36.76
2022-08-27T08:29:07.491Z,36.83
2022-08-27T08:30:11.185Z,36.82
2022-08-27T08:31:13.501Z,36.79
2022-08-27T08:32:15.806Z,36.80
2022-08-27T08:33:18.290Z,36.71
2022-08-27T08:34:20.740Z,36.70
2022-08-27T08:35:24.479Z,36.60
2022-08-27T08:36:27.103Z,36.57
2022-08-27T08:37:30.394Z,36.79
2022-08-27T08:38:33.263Z,36.78
2022-08-27T08:39:36.440Z,36.20
2022-08-27T08:42:01.026Z,36.27
2022-08-27T08:43:04.619Z,36.53
2022-08-27T08:44:31.761Z,35.73
2022-08-27T08:45:34.532Z,36.00
2022-08-27T08:46:42.216Z,36.17
2022-08-27T08:47:53.696Z,36.18
2022-08-27T08:48:59.536Z,36.43
2022-08-27T08:50:16.835Z,36.16
2022-08-27T08:51:27.097Z,35.94
2022-08-27T08:52:35.913Z,36.06
2022-08-27T08:53:51.596Z,36.09
2022-08-27T08:54:56.364Z,35.55
2022-08-27T08:56:01.323Z,35.90
2022-08-27T08:58:53.969Z,35.94
2022-08-27T09:00:01.152Z,35.13
2022-08-27T09:01:05.117Z,34.78
2022-08-27T09:03:22.404Z,33.98
2022-08-27T09:04:28.422Z,33.62
2022-08-27T09:05:31.186Z,33.62
2022-08-27T09:06:42.664Z,33.74
2022-08-27T09:08:31.830Z,34.33
2022-08-27T09:09:35.002Z,34.50
2022-08-27T09:10:50.063Z,34.92
2022-08-27T09:13:20.071Z,34.87
2022-08-27T09:14:27.801Z,34.91
2022-08-27T09:15:32.733Z,35.21
2022-08-27T09:16:36.622Z,35.10
2022-08-27T09:17:40.640Z,34.96
2022-08-27T09:18:44.386Z,34.15
2022-08-27T09:19:52.339Z,34.31
2022-08-27T09:21:14.609Z,34.47
2022-08-27T09:23:57.206Z,35.05
2022-08-27T09:25:27.127Z,35.29
2022-08-27T09:26:33.478Z,35.49
2022-08-27T09:27:40.352Z,35.29
2022-08-27T09:28:43.833Z,34.06
2022-08-27T09:29:53.673Z,33.53
2022-08-27T09:30:59.433Z,33.04
2022-08-27T09:32:08.969Z,33.00
2022-08-27T09:33:11.281Z,34.08
2022-08-27T09:34:13.878Z,34.17
2022-08-27T09:35:16.745Z,34.74
2022-08-27T09:36:23.558Z,34.74
2022-08-27T09:37:34.174Z,34.53
2022-08-27T09:38:32.131Z,34.61
2022-08-27T09:39:49.888Z,34.18
2022-08-27T09:40:52.987Z,34.79
2022-08-27T09:41:55.594Z,34.31
2022-08-27T09:43:07.484Z,34.96
2022-08-27T09:44:12.654Z,34.98
2022-08-27T09:46:29.305Z,34.98
2022-08-27T09:47:46.562Z,35.01
2022-08-27T09:48:50.016Z,35.04
2022-08-27T09:51:21.842Z,33.85
2022-08-27T09:52:31.200Z,34.10
2022-08-27T09:53:48.305Z,34.37
2022-08-27T09:54:53.330Z,34.03
2022-08-27T09:56:00.523Z,33.60
2022-08-27T09:57:05.632Z,33.60
2022-08-27T09:59:34.593Z,34.96
2022-08-27T10:00:40.142Z,35.06
2022-08-27T10:01:56.247Z,34.94
2022-08-27T10:02:59.431Z,35.35
2022-08-27T10:05:28.310Z,35.70
2022-08-27T10:06:31.710Z,35.96
2022-08-27T10:07:53.221Z,35.90
2022-08-27T10:09:27.227Z,35.59
2022-08-27T10:10:56.017Z,35.25
2022-08-27T10:13:29.146Z,35.47
2022-08-27T10:14:34.429Z,34.68
2022-08-27T10:16:57.625Z,35.26
2022-08-27T10:18:03.114Z,35.16
2022-08-27T10:19:36.194Z,35.42
2022-08-27T10:21:05.821Z,35.90
2022-08-27T10:22:41.044Z,35.81
2022-08-27T10:23:53.733Z,35.52
2022-08-27T10:25:16.678Z,35.53
2022-08-27T10:27:44.833Z,36.71
2022-08-27T10:28:57.045Z,36.73
2022-08-27T10:30:07.824Z,36.53
2022-08-27T10:31:28.574Z,36.69
2022-08-27T10:32:37.717Z,36.13
2022-08-27T10:34:05.271Z,37.30
2022-08-27T10:37:09.487Z,37.91
2022-08-27T10:38:33.357Z,37.61
2022-08-27T10:39:48.524Z,37.74
2022-08-27T10:41:03.474Z,37.93
2022-08-27T10:42:25.495Z,38.03
2022-08-27T10:43:43.629Z,38.22
2022-08-27T10:45:03.193Z,38.33
2022-08-27T10:46:38.736Z,37.79
2022-08-27T10:48:01.474Z,37.79
2022-08-27T10:49:23.397Z,37.64
2022-08-27T10:50:31.795Z,37.20
2022-08-27T10:51:46.959Z,36.13
2022-08-27T10:52:53.211Z,35.79
2022-08-27T10:54:03.256Z,35.90
2022-08-27T10:55:15.344Z,35.82
2022-08-27T10:56:33.351Z,35.96
2022-08-27T10:58:13.458Z,35.96
2022-08-27T10:59:39.547Z,36.07
2022-08-27T11:01:05.031Z,35.62
2022-08-27T11:02:28.775Z,35.78
2022-08-27T11:03:35.058Z,35.52
2022-08-27T11:04:40.664Z,35.32
2022-08-27T11:05:47.232Z,34.74
2022-08-27T11:08:44.503Z,34.83
2022-08-27T11:10:00.305Z,34.80
2022-08-27T11:11:51.379Z,34.65
2022-08-27T11:12:17.111Z,34.88
2022-08-27T11:13:36.713Z,34.83
2022-08-27T11:14:52.342Z,34.99
2022-08-27T11:15:54.701Z,34.98
2022-08-27T11:17:08.083Z,35.26
2022-08-27T11:18:20.005Z,35.25
2022-08-27T11:19:29.335Z,35.37
2022-08-27T11:20:45.432Z,35.03
2022-08-27T11:22:00.697Z,35.20
2022-08-27T11:23:06.318Z,34.91
2022-08-27T11:26:02.778Z,34.63
2022-08-27T11:27:06.686Z,34.24
2022-08-27T11:28:10.135Z,34.24
2022-08-27T11:29:26.534Z,34.38
2022-08-27T11:31:01.352Z,33.87
2022-08-27T11:32:31.101Z,33.92
2022-08-27T11:33:46.402Z,33.62
2022-08-27T11:34:55.241Z,33.37
2022-08-27T11:36:33.322Z,33.27
2022-08-27T11:37:59.156Z,33.25
2022-08-27T11:39:21.894Z,33.31
2022-08-27T11:40:34.342Z,33.57
2022-08-27T11:42:09.727Z,33.27
2022-08-27T11:44:27.241Z,33.51
2022-08-27T11:45:31.882Z,33.97
2022-08-27T11:46:44.588Z,33.80
2022-08-27T11:47:53.098Z,33.91
2022-08-27T11:50:30.560Z,34.07
2022-08-27T11:51:34.878Z,33.99
2022-08-27T11:52:40.427Z,33.99
2022-08-27T11:53:57.928Z,34.27
2022-08-27T11:55:22.719Z,34.28
2022-08-27T11:56:33.273Z,34.25
2022-08-27T11:57:36.247Z,34.48
2022-08-27T11:58:52.578Z,34.53
2022-08-27T11:59:43.984Z,34.52
2022-08-27T12:00:47.231Z,34.47
2022-08-27T12:01:50.667Z,34.41
2022-08-27T12:03:02.858Z,34.38
2022-08-27T12:04:27.564Z,34.39
2022-08-27T12:05:51.356Z,34.40
2022-08-27T12:07:05.795Z,34.40
2022-08-27T12:08:23.732Z,34.60
2022-08-27T12:09:26.981Z,34.60
2022-08-27T12:10:33.980Z,34.66
2022-08-27T12:12:56.909Z,34.75
2022-08-27T12:14:24.075Z,34.67
2022-08-27T12:15:40.773Z,34.48
2022-08-27T12:16:56.141Z,34.32
2022-08-27T12:19:35.268Z,33.66
2022-08-27T12:20:47.998Z,33.62
2022-08-27T12:22:20.239Z,33.09
2022-08-27T12:24:55.714Z,33.50
2022-08-27T12:26:00.360Z,33.59
2022-08-27T12:27:26.317Z,33.64
2022-08-27T12:28:28.780Z,33.51
2022-08-27T12:29:52.952Z,33.45
2022-08-27T12:30:55.521Z,33.75
2022-08-27T12:32:14.116Z,33.77
2022-08-27T12:33:33.420Z,33.63
2022-08-27T12:34:42.437Z,33.37
2022-08-27T12:35:50.843Z,33.39
2022-08-27T12:36:54.022Z,33.51
2022-08-27T12:38:16.140Z,33.38
2022-08-27T12:39:23.429Z,33.35
2022-08-27T12:40:32.562Z,33.25
2022-08-27T12:41:43.865Z,33.22
2022-08-27T12:42:40.038Z,33.06
2022-08-27T12:43:42.415Z,33.12
2022-08-27T12:44:44.660Z,32.90
2022-08-27T12:45:49.478Z,32.77
2022-08-27T12:46:55.184Z,32.80
2022-08-27T12:47:58.397Z,32.58
2022-08-27T12:49:02.747Z,32.34
2022-08-27T12:50:07.763Z,31.93
2022-08-27T12:51:28.839Z,31.78
2022-08-27T12:53:00.995Z,31.83
2022-08-27T12:54:29.056Z,32.03
2022-08-27T12:55:55.198Z,31.98
2022-08-27T12:58:34.708Z,31.86
2022-08-27T12:59:49.890Z,31.89
2022-08-27T13:01:00.144Z,31.92
2022-08-27T13:02:15.164Z,32.10
2022-08-27T13:03:37.716Z,32.06
2022-08-27T13:04:43.053Z,32.10
2022-08-27T13:05:48.839Z,32.55
2022-08-27T13:06:51.362Z,32.43
2022-08-27T13:07:56.617Z,32.66
2022-08-27T13:09:01.004Z,32.34
2022-08-27T13:10:12.472Z,32.58
2022-08-27T13:11:21.605Z,32.97
2022-08-27T13:12:24.263Z,32.55
2022-08-27T13:13:27.139Z,32.79
2022-08-27T13:14:38.509Z,33.19
2022-08-27T13:15:56.507Z,33.70
2022-08-27T13:18:14.464Z,32.83
2022-08-27T13:19:25.648Z,32.78
2022-08-27T13:20:28.306Z,32.59
2022-08-27T13:21:30.795Z,32.69
2022-08-27T13:22:38.988Z,32.80
2022-08-27T13:23:45.354Z,33.00
2022-08-27T13:24:49.586Z,32.77
2022-08-27T13:26:02.649Z,32.66
2022-08-27T13:27:06.290Z,32.56
2022-08-27T13:28:13.520Z,32.19
2022-08-27T13:29:16.494Z,32.38
2022-08-27T13:30:35.068Z,32.27
2022-08-27T13:31:24.626Z,32.60
2022-08-27T13:32:27.172Z,32.79
2022-08-27T13:33:32.700Z,32.42
2022-08-27T13:34:38.961Z,32.57
2022-08-27T13:35:43.025Z,32.93
2022-08-27T13:36:57.710Z,33.19
2022-08-27T13:38:02.398Z,33.28
2022-08-27T13:39:05.513Z,33.44
2022-08-27T13:40:09.753Z,33.32
2022-08-27T13:41:25.294Z,33.27
2022-08-27T13:42:28.837Z,33.27
2022-08-27T13:44:52.161Z,33.23
2022-08-27T13:45:55.374Z,32.88
2022-08-27T13:47:11.600Z,32.65
2022-08-27T13:48:15.191Z,32.57
2022-08-27T13:49:22.875Z,32.53
2022-08-27T13:50:30.266Z,32.62
2022-08-27T13:51:35.021Z,32.57
2022-08-27T13:52:39.283Z,32.29
2022-08-27T13:53:45.128Z,31.96
2022-08-27T13:54:54.351Z,32.02
2022-08-27T13:55:57.218Z,32.04
2022-08-27T13:57:05.528Z,32.25
2022-08-27T13:58:20.071Z,32.31
2022-08-27T13:59:27.377Z,32.04
2022-08-27T14:00:32.093Z,32.15
2022-08-27T14:01:35.163Z,32.41
2022-08-27T14:02:37.916Z,32.37
2022-08-27T14:03:48.986Z,32.01
2022-08-27T14:05:04.971Z,32.24
2022-08-27T14:06:07.532Z,32.40
2022-08-27T14:07:16.238Z,32.32
2022-08-27T14:08:19.832Z,32.38
2022-08-27T14:09:27.666Z,32.43
2022-08-27T14:10:38.810Z,32.47
2022-08-27T14:11:41.047Z,32.53
2022-08-27T14:12:44.642Z,32.76
2022-08-27T14:13:48.130Z,32.77
2022-08-27T14:14:50.596Z,33.08
2022-08-27T14:15:57.216Z,33.27
2022-08-27T14:17:01.159Z,33.34
2022-08-27T14:18:05.673Z,33.46
2022-08-27T14:19:14.483Z,33.55
2022-08-27T14:20:17.944Z,33.42
2022-08-27T14:21:22.275Z,33.51
2022-08-27T14:22:24.840Z,33.51
2022-08-27T14:23:27.719Z,33.64
2022-08-27T14:24:30.184Z,33.82
2022-08-27T14:25:32.969Z,33.99
2022-08-27T14:26:37.311Z,33.91
2022-08-27T14:27:40.652Z,33.92
2022-08-27T14:28:45.393Z,33.61
2022-08-27T14:29:48.342Z,33.86
2022-08-27T14:30:53.700Z,33.88
2022-08-27T14:31:55.729Z,33.86
2022-08-27T14:32:59.241Z,33.83
2022-08-27T14:34:03.278Z,33.97
2022-08-27T14:35:07.544Z,33.97
2022-08-27T14:36:11.061Z,34.06
2022-08-27T14:37:13.886Z,34.04
2022-08-27T14:38:19.545Z,34.14
2022-08-27T14:39:26.742Z,33.99
2022-08-27T14:40:28.233Z,33.99
2022-08-27T14:41:30.607Z,34.02
2022-08-27T14:42:34.808Z,33.96
2022-08-27T14:43:39.117Z,32.75
2022-08-27T14:44:43.425Z,33.01
2022-08-27T14:45:46.119Z,32.19
2022-08-27T14:46:48.948Z,32.67
2022-08-27T14:47:52.565Z,32.52
2022-08-27T14:48:56.154Z,32.80
2022-08-27T14:49:58.620Z,32.05
2022-08-27T14:51:03.615Z,31.90
2022-08-27T14:52:07.038Z,30.99